Terminal Aerodrome Forecast
Issued by NWS Twin Cities, MN

Home | Current Version | Previous Version | Text Only | Print | Product List | Glossary Off
Versions: 1 2 3 4 5 6 7 8 9 10 11 12 13 14 15 16 17 18 19 20 21 22 23 24 25 26

132
FTUS43 KMPX 051928 AAA
TAFMSP
TAF AMD
KMSP 051928Z 0519/0624 15015G22KT P6SM SCT050 OVC070
     FM052100 15015G22KT P6SM OVC070 WS020/18045KT
     FM060200 16012G18KT 6SM -RA OVC030
     FM060600 23011KT P6SM OVC025
     FM061600 24019G32KT P6SM VCSH OVC025 PROB30 0618/0624 2SM
      -SHSN=

USA.gov is the U.S. government's official web portal to all federal, state and local government web resources and services.